sensor_id;sensor_type;location;lat;lon;timestamp;P1;durP1;ratioP1;P2;durP2;ratioP2
17596;SDS011;8917;50.942;6.946;2023-02-22T00:00:07;28.93;;;19.23;;
17596;SDS011;8917;50.942;6.946;2023-02-22T00:02:43;30.27;;;18.63;;
17596;SDS011;8917;50.942;6.946;2023-02-22T00:05:10;31.10;;;19.63;;
17596;SDS011;8917;50.942;6.946;2023-02-22T00:07:40;29.80;;;19.00;;
17596;SDS011;8917;50.942;6.946;2023-02-22T00:10:10;28.57;;;18.27;;
17596;SDS011;8917;50.942;6.946;2023-02-22T00:12:39;27.20;;;18.43;;
17596;SDS011;8917;50.942;6.946;2023-02-22T00:15:06;26.53;;;18.30;;
17596;SDS011;8917;50.942;6.946;2023-02-22T00:17:37;24.07;;;16.93;;
17596;SDS011;8917;50.942;6.946;2023-02-22T00:20:04;23.97;;;16.20;;
17596;SDS011;8917;50.942;6.946;2023-02-22T00:22:32;22.53;;;15.70;;
17596;SDS011;8917;50.942;6.946;2023-02-22T00:24:59;24.33;;;16.03;;
17596;SDS011;8917;50.942;6.946;2023-02-22T00:27:28;21.43;;;14.37;;
17596;SDS011;8917;50.942;6.946;2023-02-22T00:29:55;23.77;;;15.77;;
17596;SDS011;8917;50.942;6.946;2023-02-22T00:32:22;23.90;;;15.50;;
17596;SDS011;8917;50.942;6.946;2023-02-22T00:34:50;24.00;;;16.17;;
17596;SDS011;8917;50.942;6.946;2023-02-22T00:37:18;23.10;;;15.57;;
17596;SDS011;8917;50.942;6.946;2023-02-22T00:39:45;20.63;;;15.20;;
17596;SDS011;8917;50.942;6.946;2023-02-22T00:42:13;22.67;;;15.87;;
17596;SDS011;8917;50.942;6.946;2023-02-22T00:44:42;23.87;;;16.30;;
17596;SDS011;8917;50.942;6.946;2023-02-22T00:47:09;23.60;;;15.60;;
17596;SDS011;8917;50.942;6.946;2023-02-22T00:49:36;18.90;;;13.93;;
17596;SDS011;8917;50.942;6.946;2023-02-22T00:52:04;22.70;;;14.97;;
17596;SDS011;8917;50.942;6.946;2023-02-22T00:54:31;24.30;;;14.93;;
17596;SDS011;8917;50.942;6.946;2023-02-22T00:56:59;24.10;;;16.17;;
17596;SDS011;8917;50.942;6.946;2023-02-22T00:59:26;23.57;;;15.87;;
17596;SDS011;8917;50.942;6.946;2023-02-22T01:01:56;24.37;;;16.17;;
17596;SDS011;8917;50.942;6.946;2023-02-22T01:04:23;23.77;;;16.30;;
17596;SDS011;8917;50.942;6.946;2023-02-22T01:06:50;24.93;;;15.90;;
17596;SDS011;8917;50.942;6.946;2023-02-22T01:09:18;25.83;;;17.63;;
17596;SDS011;8917;50.942;6.946;2023-02-22T01:11:45;29.33;;;19.07;;
17596;SDS011;8917;50.942;6.946;2023-02-22T01:14:12;28.77;;;18.17;;
17596;SDS011;8917;50.942;6.946;2023-02-22T01:16:40;28.80;;;18.23;;
17596;SDS011;8917;50.942;6.946;2023-02-22T01:19:09;29.43;;;19.07;;
17596;SDS011;8917;50.942;6.946;2023-02-22T01:21:38;27.23;;;18.40;;
17596;SDS011;8917;50.942;6.946;2023-02-22T01:24:05;29.53;;;19.90;;
17596;SDS011;8917;50.942;6.946;2023-02-22T01:26:33;29.63;;;20.20;;
17596;SDS011;8917;50.942;6.946;2023-02-22T01:29:00;30.07;;;19.07;;
17596;SDS011;8917;50.942;6.946;2023-02-22T01:31:27;32.40;;;20.63;;
17596;SDS011;8917;50.942;6.946;2023-02-22T01:33:54;30.83;;;20.13;;
17596;SDS011;8917;50.942;6.946;2023-02-22T01:36:23;32.73;;;20.70;;
17596;SDS011;8917;50.942;6.946;2023-02-22T01:38:51;28.00;;;18.67;;
17596;SDS011;8917;50.942;6.946;2023-02-22T01:41:18;34.67;;;21.63;;
17596;SDS011;8917;50.942;6.946;2023-02-22T01:43:46;36.23;;;21.60;;
17596;SDS011;8917;50.942;6.946;2023-02-22T01:46:19;35.13;;;20.93;;
17596;SDS011;8917;50.942;6.946;2023-02-22T01:48:47;36.17;;;20.90;;
17596;SDS011;8917;50.942;6.946;2023-02-22T01:51:15;34.97;;;22.13;;
17596;SDS011;8917;50.942;6.946;2023-02-22T01:53:46;32.07;;;20.87;;
17596;SDS011;8917;50.942;6.946;2023-02-22T01:56:14;30.63;;;19.47;;
17596;SDS011;8917;50.942;6.946;2023-02-22T01:58:42;29.80;;;19.63;;
17596;SDS011;8917;50.942;6.946;2023-02-22T02:01:10;27.97;;;19.13;;
17596;SDS011;8917;50.942;6.946;2023-02-22T02:03:38;26.90;;;18.47;;
17596;SDS011;8917;50.942;6.946;2023-02-22T02:06:07;29.83;;;19.33;;
17596;SDS011;8917;50.942;6.946;2023-02-22T02:08:39;25.07;;;18.23;;
17596;SDS011;8917;50.942;6.946;2023-02-22T02:11:09;30.83;;;20.13;;
17596;SDS011;8917;50.942;6.946;2023-02-22T02:13:36;28.90;;;19.73;;
17596;SDS011;8917;50.942;6.946;2023-02-22T02:16:04;27.70;;;18.53;;
17596;SDS011;8917;50.942;6.946;2023-02-22T02:18:31;29.53;;;18.20;;
17596;SDS011;8917;50.942;6.946;2023-02-22T02:21:20;26.40;;;18.03;;
17596;SDS011;8917;50.942;6.946;2023-02-22T02:26:43;23.57;;;16.30;;
17596;SDS011;8917;50.942;6.946;2023-02-22T02:29:18;22.33;;;16.17;;
17596;SDS011;8917;50.942;6.946;2023-02-22T02:32:01;22.87;;;16.27;;
17596;SDS011;8917;50.942;6.946;2023-02-22T02:34:31;22.50;;;15.83;;
17596;SDS011;8917;50.942;6.946;2023-02-22T02:36:59;21.03;;;15.23;;
17596;SDS011;8917;50.942;6.946;2023-02-22T02:39:30;22.33;;;15.63;;
17596;SDS011;8917;50.942;6.946;2023-02-22T02:42:02;25.73;;;16.57;;
17596;SDS011;8917;50.942;6.946;2023-02-22T02:44:32;21.23;;;15.13;;
17596;SDS011;8917;50.942;6.946;2023-02-22T02:47:03;21.70;;;14.77;;
17596;SDS011;8917;50.942;6.946;2023-02-22T02:49:33;21.43;;;15.43;;
17596;SDS011;8917;50.942;6.946;2023-02-22T02:52:02;21.53;;;15.67;;
17596;SDS011;8917;50.942;6.946;2023-02-22T02:54:30;19.97;;;14.70;;
17596;SDS011;8917;50.942;6.946;2023-02-22T02:56:58;22.30;;;15.23;;
17596;SDS011;8917;50.942;6.946;2023-02-22T02:59:26;22.77;;;15.27;;
17596;SDS011;8917;50.942;6.946;2023-02-22T03:01:56;22.73;;;15.30;;
17596;SDS011;8917;50.942;6.946;2023-02-22T03:04:32;21.20;;;14.87;;
17596;SDS011;8917;50.942;6.946;2023-02-22T03:07:08;21.57;;;14.00;;
17596;SDS011;8917;50.942;6.946;2023-02-22T03:09:39;21.43;;;14.93;;
17596;SDS011;8917;50.942;6.946;2023-02-22T03:12:13;20.80;;;14.83;;
17596;SDS011;8917;50.942;6.946;2023-02-22T03:14:52;20.70;;;14.63;;
17596;SDS011;8917;50.942;6.946;2023-02-22T03:17:22;19.57;;;13.77;;
17596;SDS011;8917;50.942;6.946;2023-02-22T03:19:56;19.67;;;14.73;;
17596;SDS011;8917;50.942;6.946;2023-02-22T03:22:26;19.23;;;14.47;;
17596;SDS011;8917;50.942;6.946;2023-02-22T03:24:58;22.43;;;15.00;;
17596;SDS011;8917;50.942;6.946;2023-02-22T03:27:32;19.17;;;13.53;;
17596;SDS011;8917;50.942;6.946;2023-02-22T03:30:02;20.87;;;13.93;;
17596;SDS011;8917;50.942;6.946;2023-02-22T03:32:32;19.13;;;14.33;;
17596;SDS011;8917;50.942;6.946;2023-02-22T03:35:04;19.67;;;14.57;;
17596;SDS011;8917;50.942;6.946;2023-02-22T03:37:34;18.63;;;13.67;;
17596;SDS011;8917;50.942;6.946;2023-02-22T03:40:03;20.77;;;14.13;;
17596;SDS011;8917;50.942;6.946;2023-02-22T03:42:37;20.23;;;14.07;;
17596;SDS011;8917;50.942;6.946;2023-02-22T03:45:06;20.57;;;15.47;;
17596;SDS011;8917;50.942;6.946;2023-02-22T03:47:36;18.87;;;14.37;;
17596;SDS011;8917;50.942;6.946;2023-02-22T03:50:06;21.80;;;15.57;;
17596;SDS011;8917;50.942;6.946;2023-02-22T03:52:34;21.43;;;14.43;;
17596;SDS011;8917;50.942;6.946;2023-02-22T03:55:02;18.27;;;13.90;;
17596;SDS011;8917;50.942;6.946;2023-02-22T03:57:35;21.20;;;15.40;;
17596;SDS011;8917;50.942;6.946;2023-02-22T04:00:04;20.37;;;14.23;;
17596;SDS011;8917;50.942;6.946;2023-02-22T04:02:31;23.47;;;15.37;;
17596;SDS011;8917;50.942;6.946;2023-02-22T04:04:59;20.63;;;14.93;;
17596;SDS011;8917;50.942;6.946;2023-02-22T04:07:27;21.63;;;14.77;;
17596;SDS011;8917;50.942;6.946;2023-02-22T04:09:55;20.53;;;15.20;;
17596;SDS011;8917;50.942;6.946;2023-02-22T04:12:22;22.70;;;15.90;;
17596;SDS011;8917;50.942;6.946;2023-02-22T04:14:49;19.30;;;14.60;;
17596;SDS011;8917;50.942;6.946;2023-02-22T04:17:16;22.63;;;14.67;;
17596;SDS011;8917;50.942;6.946;2023-02-22T04:19:44;21.30;;;15.03;;
17596;SDS011;8917;50.942;6.946;2023-02-22T04:22:12;22.37;;;15.47;;
17596;SDS011;8917;50.942;6.946;2023-02-22T04:24:40;21.23;;;15.03;;
17596;SDS011;8917;50.942;6.946;2023-02-22T04:27:07;21.60;;;15.20;;
17596;SDS011;8917;50.942;6.946;2023-02-22T04:29:35;19.90;;;14.73;;
17596;SDS011;8917;50.942;6.946;2023-02-22T04:32:02;22.47;;;14.80;;
17596;SDS011;8917;50.942;6.946;2023-02-22T04:34:30;19.87;;;14.90;;
17596;SDS011;8917;50.942;6.946;2023-02-22T04:36:57;20.97;;;13.90;;
17596;SDS011;8917;50.942;6.946;2023-02-22T04:39:24;19.67;;;14.27;;
17596;SDS011;8917;50.942;6.946;2023-02-22T04:41:52;21.47;;;15.20;;
17596;SDS011;8917;50.942;6.946;2023-02-22T04:44:20;18.73;;;13.43;;
17596;SDS011;8917;50.942;6.946;2023-02-22T04:46:47;16.43;;;12.33;;
17596;SDS011;8917;50.942;6.946;2023-02-22T04:49:14;18.50;;;13.47;;
17596;SDS011;8917;50.942;6.946;2023-02-22T04:51:41;17.23;;;12.80;;
17596;SDS011;8917;50.942;6.946;2023-02-22T04:54:08;15.57;;;12.90;;
17596;SDS011;8917;50.942;6.946;2023-02-22T04:56:36;16.10;;;12.33;;
17596;SDS011;8917;50.942;6.946;2023-02-22T04:59:05;17.13;;;12.37;;
17596;SDS011;8917;50.942;6.946;2023-02-22T05:01:32;17.80;;;12.80;;
17596;SDS011;8917;50.942;6.946;2023-02-22T05:04:00;16.97;;;12.70;;
17596;SDS011;8917;50.942;6.946;2023-02-22T05:06:28;18.17;;;12.33;;
17596;SDS011;8917;50.942;6.946;2023-02-22T05:08:55;16.23;;;12.37;;
17596;SDS011;8917;50.942;6.946;2023-02-22T05:11:22;18.70;;;13.50;;
17596;SDS011;8917;50.942;6.946;2023-02-22T05:13:49;16.90;;;12.83;;
17596;SDS011;8917;50.942;6.946;2023-02-22T05:16:18;17.10;;;12.90;;
17596;SDS011;8917;50.942;6.946;2023-02-22T05:18:45;18.10;;;12.93;;
17596;SDS011;8917;50.942;6.946;2023-02-22T05:21:12;18.00;;;13.43;;
17596;SDS011;8917;50.942;6.946;2023-02-22T05:23:39;18.40;;;13.17;;
17596;SDS011;8917;50.942;6.946;2023-02-22T05:26:06;18.27;;;13.77;;
17596;SDS011;8917;50.942;6.946;2023-02-22T05:28:34;19.57;;;14.50;;
17596;SDS011;8917;50.942;6.946;2023-02-22T05:31:01;17.70;;;12.97;;
17596;SDS011;8917;50.942;6.946;2023-02-22T05:33:30;16.90;;;12.90;;
17596;SDS011;8917;50.942;6.946;2023-02-22T05:35:57;20.13;;;12.97;;
17596;SDS011;8917;50.942;6.946;2023-02-22T05:38:24;16.07;;;12.03;;
17596;SDS011;8917;50.942;6.946;2023-02-22T05:40:51;18.23;;;13.40;;
17596;SDS011;8917;50.942;6.946;2023-02-22T05:43:18;17.37;;;12.93;;
17596;SDS011;8917;50.942;6.946;2023-02-22T05:45:45;15.07;;;11.70;;
17596;SDS011;8917;50.942;6.946;2023-02-22T05:48:13;18.13;;;12.73;;
17596;SDS011;8917;50.942;6.946;2023-02-22T05:50:41;16.37;;;12.50;;
17596;SDS011;8917;50.942;6.946;2023-02-22T05:53:09;15.70;;;11.73;;
17596;SDS011;8917;50.942;6.946;2023-02-22T05:55:36;15.70;;;11.63;;
17596;SDS011;8917;50.942;6.946;2023-02-22T05:58:04;16.50;;;12.23;;
17596;SDS011;8917;50.942;6.946;2023-02-22T06:00:31;14.53;;;12.07;;
17596;SDS011;8917;50.942;6.946;2023-02-22T06:02:59;14.53;;;11.10;;
17596;SDS011;8917;50.942;6.946;2023-02-22T06:05:26;16.03;;;11.77;;
17596;SDS011;8917;50.942;6.946;2023-02-22T06:07:55;14.07;;;11.03;;
17596;SDS011;8917;50.942;6.946;2023-02-22T06:10:23;14.63;;;11.23;;
17596;SDS011;8917;50.942;6.946;2023-02-22T06:12:50;13.57;;;10.80;;
17596;SDS011;8917;50.942;6.946;2023-02-22T06:15:18;14.57;;;11.03;;
17596;SDS011;8917;50.942;6.946;2023-02-22T06:17:46;14.50;;;11.17;;
17596;SDS011;8917;50.942;6.946;2023-02-22T06:20:15;13.67;;;11.10;;
17596;SDS011;8917;50.942;6.946;2023-02-22T06:22:45;14.50;;;10.63;;
17596;SDS011;8917;50.942;6.946;2023-02-22T06:25:14;13.97;;;10.07;;
17596;SDS011;8917;50.942;6.946;2023-02-22T06:27:41;12.60;;;10.13;;
17596;SDS011;8917;50.942;6.946;2023-02-22T06:30:09;11.80;;;10.00;;
17596;SDS011;8917;50.942;6.946;2023-02-22T06:32:36;12.80;;;10.17;;
17596;SDS011;8917;50.942;6.946;2023-02-22T06:35:04;15.30;;;11.27;;
17596;SDS011;8917;50.942;6.946;2023-02-22T06:37:31;13.90;;;10.60;;
17596;SDS011;8917;50.942;6.946;2023-02-22T06:39:58;14.87;;;11.10;;
17596;SDS011;8917;50.942;6.946;2023-02-22T06:42:27;12.97;;;10.30;;
17596;SDS011;8917;50.942;6.946;2023-02-22T06:44:54;12.00;;;10.50;;
17596;SDS011;8917;50.942;6.946;2023-02-22T06:47:21;15.50;;;10.77;;
17596;SDS011;8917;50.942;6.946;2023-02-22T06:49:51;13.13;;;10.73;;
17596;SDS011;8917;50.942;6.946;2023-02-22T06:52:18;12.70;;;10.93;;
17596;SDS011;8917;50.942;6.946;2023-02-22T06:54:46;14.27;;;11.30;;
17596;SDS011;8917;50.942;6.946;2023-02-22T06:57:14;14.27;;;10.60;;
17596;SDS011;8917;50.942;6.946;2023-02-22T06:59:42;15.27;;;11.20;;
17596;SDS011;8917;50.942;6.946;2023-02-22T07:02:09;15.57;;;11.20;;
17596;SDS011;8917;50.942;6.946;2023-02-22T07:04:37;12.20;;;10.70;;
17596;SDS011;8917;50.942;6.946;2023-02-22T07:07:04;12.27;;;10.77;;
17596;SDS011;8917;50.942;6.946;2023-02-22T07:09:31;14.37;;;10.87;;
17596;SDS011;8917;50.942;6.946;2023-02-22T07:11:59;14.43;;;11.33;;
17596;SDS011;8917;50.942;6.946;2023-02-22T07:14:26;14.03;;;11.10;;
17596;SDS011;8917;50.942;6.946;2023-02-22T07:16:54;15.30;;;10.70;;
17596;SDS011;8917;50.942;6.946;2023-02-22T07:19:21;16.80;;;14.07;;
17596;SDS011;8917;50.942;6.946;2023-02-22T07:21:49;21.60;;;13.13;;
17596;SDS011;8917;50.942;6.946;2023-02-22T07:24:23;16.03;;;11.73;;
17596;SDS011;8917;50.942;6.946;2023-02-22T07:26:50;15.27;;;11.50;;
17596;SDS011;8917;50.942;6.946;2023-02-22T07:29:18;17.07;;;11.27;;
17596;SDS011;8917;50.942;6.946;2023-02-22T07:31:46;14.43;;;11.17;;
17596;SDS011;8917;50.942;6.946;2023-02-22T07:34:15;18.07;;;11.90;;
17596;SDS011;8917;50.942;6.946;2023-02-22T07:36:42;15.60;;;10.50;;
17596;SDS011;8917;50.942;6.946;2023-02-22T07:39:09;15.33;;;11.67;;
17596;SDS011;8917;50.942;6.946;2023-02-22T07:41:36;16.73;;;12.77;;
17596;SDS011;8917;50.942;6.946;2023-02-22T07:44:04;16.33;;;11.77;;
17596;SDS011;8917;50.942;6.946;2023-02-22T07:46:31;14.67;;;10.77;;
17596;SDS011;8917;50.942;6.946;2023-02-22T07:48:58;15.50;;;11.20;;
17596;SDS011;8917;50.942;6.946;2023-02-22T07:51:26;14.03;;;11.13;;
17596;SDS011;8917;50.942;6.946;2023-02-22T07:53:54;17.10;;;10.63;;
17596;SDS011;8917;50.942;6.946;2023-02-22T07:56:21;17.30;;;11.43;;
17596;SDS011;8917;50.942;6.946;2023-02-22T07:58:48;13.43;;;11.17;;
17596;SDS011;8917;50.942;6.946;2023-02-22T08:01:15;17.97;;;11.30;;
17596;SDS011;8917;50.942;6.946;2023-02-22T08:03:42;15.20;;;11.50;;
17596;SDS011;8917;50.942;6.946;2023-02-22T08:06:11;14.93;;;10.77;;
17596;SDS011;8917;50.942;6.946;2023-02-22T08:08:40;15.50;;;11.43;;
17596;SDS011;8917;50.942;6.946;2023-02-22T08:11:07;14.93;;;10.80;;
17596;SDS011;8917;50.942;6.946;2023-02-22T08:13:34;18.23;;;11.30;;
17596;SDS011;8917;50.942;6.946;2023-02-22T08:16:02;14.37;;;11.20;;
17596;SDS011;8917;50.942;6.946;2023-02-22T08:18:29;17.33;;;11.83;;
17596;SDS011;8917;50.942;6.946;2023-02-22T08:20:56;17.30;;;12.07;;
17596;SDS011;8917;50.942;6.946;2023-02-22T08:23:24;16.03;;;11.93;;
17596;SDS011;8917;50.942;6.946;2023-02-22T08:25:53;19.10;;;13.77;;
17596;SDS011;8917;50.942;6.946;2023-02-22T08:28:21;15.43;;;12.03;;
17596;SDS011;8917;50.942;6.946;2023-02-22T08:30:49;16.43;;;11.40;;
17596;SDS011;8917;50.942;6.946;2023-02-22T08:33:17;16.60;;;11.80;;
17596;SDS011;8917;50.942;6.946;2023-02-22T08:35:47;16.47;;;11.00;;
17596;SDS011;8917;50.942;6.946;2023-02-22T08:38:18;19.40;;;12.13;;
17596;SDS011;8917;50.942;6.946;2023-02-22T08:40:46;15.90;;;12.30;;
17596;SDS011;8917;50.942;6.946;2023-02-22T08:43:15;16.33;;;12.13;;
17596;SDS011;8917;50.942;6.946;2023-02-22T08:45:42;17.37;;;11.53;;
17596;SDS011;8917;50.942;6.946;2023-02-22T08:48:10;15.83;;;12.03;;
17596;SDS011;8917;50.942;6.946;2023-02-22T08:50:38;19.93;;;12.50;;
17596;SDS011;8917;50.942;6.946;2023-02-22T08:53:06;17.00;;;12.10;;
17596;SDS011;8917;50.942;6.946;2023-02-22T08:55:34;18.77;;;12.77;;
17596;SDS011;8917;50.942;6.946;2023-02-22T08:58:02;20.13;;;12.60;;
17596;SDS011;8917;50.942;6.946;2023-02-22T09:00:31;15.47;;;11.63;;
17596;SDS011;8917;50.942;6.946;2023-02-22T09:02:59;16.27;;;11.63;;
17596;SDS011;8917;50.942;6.946;2023-02-22T09:05:26;19.17;;;13.00;;
17596;SDS011;8917;50.942;6.946;2023-02-22T09:07:54;16.83;;;11.90;;
17596;SDS011;8917;50.942;6.946;2023-02-22T09:10:22;18.50;;;12.67;;
17596;SDS011;8917;50.942;6.946;2023-02-22T09:12:49;18.20;;;12.40;;
17596;SDS011;8917;50.942;6.946;2023-02-22T09:15:17;18.23;;;12.60;;
17596;SDS011;8917;50.942;6.946;2023-02-22T09:17:46;20.50;;;13.23;;
17596;SDS011;8917;50.942;6.946;2023-02-22T09:20:15;17.57;;;12.70;;
17596;SDS011;8917;50.942;6.946;2023-02-22T09:22:43;17.90;;;12.97;;
17596;SDS011;8917;50.942;6.946;2023-02-22T09:25:11;15.80;;;12.30;;
17596;SDS011;8917;50.942;6.946;2023-02-22T09:27:38;17.40;;;12.20;;
17596;SDS011;8917;50.942;6.946;2023-02-22T09:30:08;17.73;;;12.40;;
17596;SDS011;8917;50.942;6.946;2023-02-22T09:32:38;18.63;;;13.30;;
17596;SDS011;8917;50.942;6.946;2023-02-22T09:35:07;17.40;;;13.63;;
17596;SDS011;8917;50.942;6.946;2023-02-22T09:37:34;16.73;;;13.00;;
17596;SDS011;8917;50.942;6.946;2023-02-22T09:40:01;20.63;;;12.73;;
17596;SDS011;8917;50.942;6.946;2023-02-22T09:42:34;18.83;;;13.47;;
17596;SDS011;8917;50.942;6.946;2023-02-22T09:45:09;21.47;;;13.87;;
17596;SDS011;8917;50.942;6.946;2023-02-22T09:47:40;16.93;;;13.07;;
17596;SDS011;8917;50.942;6.946;2023-02-22T09:50:12;15.67;;;12.43;;
17596;SDS011;8917;50.942;6.946;2023-02-22T09:52:42;17.87;;;12.53;;
17596;SDS011;8917;50.942;6.946;2023-02-22T09:55:16;15.77;;;12.50;;
17596;SDS011;8917;50.942;6.946;2023-02-22T09:57:49;18.10;;;13.17;;
17596;SDS011;8917;50.942;6.946;2023-02-22T10:00:20;15.60;;;12.30;;
17596;SDS011;8917;50.942;6.946;2023-02-22T10:02:48;17.97;;;13.23;;
17596;SDS011;8917;50.942;6.946;2023-02-22T10:05:20;20.20;;;12.93;;
17596;SDS011;8917;50.942;6.946;2023-02-22T10:07:52;16.57;;;11.90;;
17596;SDS011;8917;50.942;6.946;2023-02-22T10:10:20;16.93;;;12.90;;
17596;SDS011;8917;50.942;6.946;2023-02-22T10:12:50;16.60;;;12.60;;
17596;SDS011;8917;50.942;6.946;2023-02-22T10:15:32;15.00;;;11.60;;
17596;SDS011;8917;50.942;6.946;2023-02-22T10:18:10;18.57;;;12.00;;
17596;SDS011;8917;50.942;6.946;2023-02-22T10:20:46;17.67;;;11.93;;
17596;SDS011;8917;50.942;6.946;2023-02-22T10:23:19;16.10;;;12.10;;
17596;SDS011;8917;50.942;6.946;2023-02-22T10:25:50;14.77;;;11.27;;
17596;SDS011;8917;50.942;6.946;2023-02-22T10:28:20;16.53;;;12.60;;
17596;SDS011;8917;50.942;6.946;2023-02-22T10:30:50;14.60;;;11.13;;
17596;SDS011;8917;50.942;6.946;2023-02-22T10:33:20;15.40;;;11.83;;
17596;SDS011;8917;50.942;6.946;2023-02-22T10:35:50;16.77;;;11.03;;
17596;SDS011;8917;50.942;6.946;2023-02-22T10:38:18;14.90;;;11.30;;
17596;SDS011;8917;50.942;6.946;2023-02-22T10:40:48;16.70;;;11.93;;
17596;SDS011;8917;50.942;6.946;2023-02-22T10:43:17;17.77;;;11.13;;
17596;SDS011;8917;50.942;6.946;2023-02-22T10:45:44;21.33;;;12.63;;
17596;SDS011;8917;50.942;6.946;2023-02-22T10:48:12;14.40;;;10.53;;
17596;SDS011;8917;50.942;6.946;2023-02-22T10:50:42;15.00;;;11.00;;
17596;SDS011;8917;50.942;6.946;2023-02-22T10:53:11;18.07;;;11.00;;
17596;SDS011;8917;50.942;6.946;2023-02-22T10:58:21;15.20;;;11.60;;
17596;SDS011;8917;50.942;6.946;2023-02-22T11:00:49;17.00;;;12.33;;
17596;SDS011;8917;50.942;6.946;2023-02-22T11:03:17;16.70;;;11.77;;
17596;SDS011;8917;50.942;6.946;2023-02-22T11:05:45;15.93;;;10.67;;
17596;SDS011;8917;50.942;6.946;2023-02-22T11:08:14;15.97;;;10.70;;
17596;SDS011;8917;50.942;6.946;2023-02-22T11:10:42;16.27;;;10.77;;
17596;SDS011;8917;50.942;6.946;2023-02-22T11:13:16;15.77;;;11.03;;
17596;SDS011;8917;50.942;6.946;2023-02-22T11:15:43;16.53;;;10.50;;
17596;SDS011;8917;50.942;6.946;2023-02-22T11:18:21;13.87;;;10.97;;
17596;SDS011;8917;50.942;6.946;2023-02-22T11:20:48;12.00;;;9.47;;
17596;SDS011;8917;50.942;6.946;2023-02-22T11:23:26;14.47;;;10.07;;
17596;SDS011;8917;50.942;6.946;2023-02-22T11:25:59;13.90;;;9.53;;
17596;SDS011;8917;50.942;6.946;2023-02-22T11:28:28;13.77;;;9.90;;
17596;SDS011;8917;50.942;6.946;2023-02-22T11:30:57;16.07;;;10.73;;
17596;SDS011;8917;50.942;6.946;2023-02-22T11:33:25;12.90;;;9.97;;
17596;SDS011;8917;50.942;6.946;2023-02-22T11:35:54;11.33;;;9.03;;
17596;SDS011;8917;50.942;6.946;2023-02-22T11:38:22;11.77;;;8.13;;
17596;SDS011;8917;50.942;6.946;2023-02-22T11:41:10;11.90;;;8.97;;
17596;SDS011;8917;50.942;6.946;2023-02-22T11:43:39;12.03;;;8.23;;
17596;SDS011;8917;50.942;6.946;2023-02-22T11:46:09;9.97;;;7.90;;
17596;SDS011;8917;50.942;6.946;2023-02-22T11:48:38;11.30;;;8.37;;
17596;SDS011;8917;50.942;6.946;2023-02-22T11:51:11;10.50;;;8.67;;
17596;SDS011;8917;50.942;6.946;2023-02-22T11:53:48;13.30;;;8.57;;
17596;SDS011;8917;50.942;6.946;2023-02-22T11:56:20;13.37;;;7.73;;
17596;SDS011;8917;50.942;6.946;2023-02-22T11:58:49;10.57;;;7.80;;
17596;SDS011;8917;50.942;6.946;2023-02-22T12:01:22;9.87;;;7.67;;
17596;SDS011;8917;50.942;6.946;2023-02-22T12:04:02;9.83;;;7.93;;
17596;SDS011;8917;50.942;6.946;2023-02-22T12:06:36;11.70;;;8.10;;
17596;SDS011;8917;50.942;6.946;2023-02-22T12:09:08;9.53;;;7.10;;
17596;SDS011;8917;50.942;6.946;2023-02-22T12:11:41;13.73;;;9.03;;
17596;SDS011;8917;50.942;6.946;2023-02-22T12:14:14;10.33;;;7.70;;
17596;SDS011;8917;50.942;6.946;2023-02-22T12:16:48;11.23;;;8.43;;
17596;SDS011;8917;50.942;6.946;2023-02-22T12:19:25;10.47;;;7.40;;
17596;SDS011;8917;50.942;6.946;2023-02-22T12:21:54;12.60;;;8.27;;
17596;SDS011;8917;50.942;6.946;2023-02-22T12:24:23;9.97;;;7.63;;
17596;SDS011;8917;50.942;6.946;2023-02-22T12:26:54;11.20;;;7.53;;
17596;SDS011;8917;50.942;6.946;2023-02-22T12:29:26;8.40;;;7.10;;
17596;SDS011;8917;50.942;6.946;2023-02-22T12:31:55;11.07;;;7.37;;
17596;SDS011;8917;50.942;6.946;2023-02-22T12:34:26;15.03;;;7.70;;
17596;SDS011;8917;50.942;6.946;2023-02-22T12:36:56;11.53;;;7.13;;
17596;SDS011;8917;50.942;6.946;2023-02-22T12:39:29;10.87;;;6.77;;
17596;SDS011;8917;50.942;6.946;2023-02-22T12:42:01;10.93;;;7.03;;
17596;SDS011;8917;50.942;6.946;2023-02-22T12:44:32;12.03;;;8.57;;
17596;SDS011;8917;50.942;6.946;2023-02-22T12:47:01;10.97;;;7.50;;
17596;SDS011;8917;50.942;6.946;2023-02-22T12:49:30;11.03;;;7.53;;
17596;SDS011;8917;50.942;6.946;2023-02-22T12:52:02;9.57;;;7.17;;
17596;SDS011;8917;50.942;6.946;2023-02-22T12:54:36;12.83;;;7.53;;
17596;SDS011;8917;50.942;6.946;2023-02-22T12:57:10;9.33;;;6.70;;
17596;SDS011;8917;50.942;6.946;2023-02-22T12:59:43;9.03;;;6.53;;
17596;SDS011;8917;50.942;6.946;2023-02-22T13:02:13;9.10;;;7.03;;
17596;SDS011;8917;50.942;6.946;2023-02-22T13:04:43;11.47;;;7.87;;
17596;SDS011;8917;50.942;6.946;2023-02-22T13:07:14;9.33;;;7.03;;
17596;SDS011;8917;50.942;6.946;2023-02-22T13:09:48;11.57;;;7.30;;
17596;SDS011;8917;50.942;6.946;2023-02-22T13:12:20;10.13;;;7.30;;
17596;SDS011;8917;50.942;6.946;2023-02-22T13:14:52;10.03;;;7.10;;
17596;SDS011;8917;50.942;6.946;2023-02-22T13:17:23;11.00;;;7.87;;
17596;SDS011;8917;50.942;6.946;2023-02-22T13:19:54;10.00;;;7.53;;
17596;SDS011;8917;50.942;6.946;2023-02-22T13:22:25;11.23;;;8.33;;
17596;SDS011;8917;50.942;6.946;2023-02-22T13:24:57;10.73;;;7.53;;
17596;SDS011;8917;50.942;6.946;2023-02-22T13:27:29;10.47;;;7.73;;
17596;SDS011;8917;50.942;6.946;2023-02-22T13:29:59;12.07;;;7.60;;
17596;SDS011;8917;50.942;6.946;2023-02-22T13:32:30;10.63;;;7.53;;
17596;SDS011;8917;50.942;6.946;2023-02-22T13:35:20;11.73;;;7.67;;
17596;SDS011;8917;50.942;6.946;2023-02-22T13:37:57;9.97;;;7.20;;
17596;SDS011;8917;50.942;6.946;2023-02-22T13:40:34;9.10;;;7.30;;
17596;SDS011;8917;50.942;6.946;2023-02-22T13:43:12;9.43;;;6.90;;
17596;SDS011;8917;50.942;6.946;2023-02-22T13:45:49;11.03;;;7.83;;
17596;SDS011;8917;50.942;6.946;2023-02-22T13:48:24;8.40;;;7.47;;
17596;SDS011;8917;50.942;6.946;2023-02-22T13:51:12;13.50;;;7.70;;
17596;SDS011;8917;50.942;6.946;2023-02-22T13:53:45;11.23;;;6.77;;
17596;SDS011;8917;50.942;6.946;2023-02-22T13:56:14;16.70;;;9.37;;
17596;SDS011;8917;50.942;6.946;2023-02-22T13:58:50;11.03;;;7.60;;
17596;SDS011;8917;50.942;6.946;2023-02-22T14:06:49;12.77;;;7.27;;
17596;SDS011;8917;50.942;6.946;2023-02-22T14:09:39;9.63;;;7.13;;
17596;SDS011;8917;50.942;6.946;2023-02-22T14:17:49;9.87;;;6.83;;
17596;SDS011;8917;50.942;6.946;2023-02-22T14:20:28;10.50;;;7.37;;
17596;SDS011;8917;50.942;6.946;2023-02-22T14:25:48;11.50;;;7.43;;
17596;SDS011;8917;50.942;6.946;2023-02-22T14:28:32;9.97;;;7.03;;
17596;SDS011;8917;50.942;6.946;2023-02-22T14:31:04;10.67;;;7.00;;
17596;SDS011;8917;50.942;6.946;2023-02-22T14:36:19;8.23;;;7.27;;
17596;SDS011;8917;50.942;6.946;2023-02-22T14:38:46;9.23;;;7.40;;
17596;SDS011;8917;50.942;6.946;2023-02-22T14:41:18;9.73;;;7.20;;
17596;SDS011;8917;50.942;6.946;2023-02-22T14:43:48;11.00;;;7.43;;
17596;SDS011;8917;50.942;6.946;2023-02-22T14:46:18;8.90;;;7.70;;
17596;SDS011;8917;50.942;6.946;2023-02-22T14:48:48;12.83;;;7.83;;
17596;SDS011;8917;50.942;6.946;2023-02-22T14:51:18;12.83;;;7.93;;
17596;SDS011;8917;50.942;6.946;2023-02-22T14:53:48;10.33;;;7.10;;
17596;SDS011;8917;50.942;6.946;2023-02-22T14:56:16;13.63;;;8.23;;
17596;SDS011;8917;50.942;6.946;2023-02-22T14:58:48;10.10;;;7.17;;
17596;SDS011;8917;50.942;6.946;2023-02-22T15:01:21;12.37;;;7.67;;
17596;SDS011;8917;50.942;6.946;2023-02-22T15:03:49;7.40;;;6.57;;
17596;SDS011;8917;50.942;6.946;2023-02-22T15:06:23;13.10;;;7.40;;
17596;SDS011;8917;50.942;6.946;2023-02-22T15:09:05;11.33;;;7.97;;
17596;SDS011;8917;50.942;6.946;2023-02-22T15:11:32;13.10;;;6.77;;
17596;SDS011;8917;50.942;6.946;2023-02-22T15:14:00;11.63;;;7.80;;